sensor_id;sensor_type;location;lat;lon;timestamp;temperature;humidity
37678;DHT22;23517;50.390;8.616;2023-03-23T00:01:57;12.40;35.80
37678;DHT22;23517;50.390;8.616;2023-03-23T00:04:23;12.40;36.00
37678;DHT22;23517;50.390;8.616;2023-03-23T00:06:51;12.50;35.90
37678;DHT22;23517;50.390;8.616;2023-03-23T00:09:17;12.50;35.90
37678;DHT22;23517;50.390;8.616;2023-03-23T00:11:49;12.50;35.90
37678;DHT22;23517;50.390;8.616;2023-03-23T00:14:16;12.40;36.10
37678;DHT22;23517;50.390;8.616;2023-03-23T00:16:47;12.40;36.20
37678;DHT22;23517;50.390;8.616;2023-03-23T00:19:14;12.40;36.30
37678;DHT22;23517;50.390;8.616;2023-03-23T00:21:40;12.40;36.40
37678;DHT22;23517;50.390;8.616;2023-03-23T00:24:16;12.40;36.50
37678;DHT22;23517;50.390;8.616;2023-03-23T00:26:45;12.40;37.00
37678;DHT22;23517;50.390;8.616;2023-03-23T00:29:20;12.40;36.70
37678;DHT22;23517;50.390;8.616;2023-03-23T00:31:47;12.50;36.30
37678;DHT22;23517;50.390;8.616;2023-03-23T00:34:24;12.50;36.40
37678;DHT22;23517;50.390;8.616;2023-03-23T00:36:54;12.40;36.60
37678;DHT22;23517;50.390;8.616;2023-03-23T00:39:23;12.40;36.50
37678;DHT22;23517;50.390;8.616;2023-03-23T00:41:53;12.40;36.90
37678;DHT22;23517;50.390;8.616;2023-03-23T00:44:29;12.40;36.50
37678;DHT22;23517;50.390;8.616;2023-03-23T00:46:57;12.40;36.60
37678;DHT22;23517;50.390;8.616;2023-03-23T00:49:24;12.50;37.10
37678;DHT22;23517;50.390;8.616;2023-03-23T00:51:52;12.50;37.80
37678;DHT22;23517;50.390;8.616;2023-03-23T00:54:19;12.50;37.10
37678;DHT22;23517;50.390;8.616;2023-03-23T00:56:46;12.50;37.30
37678;DHT22;23517;50.390;8.616;2023-03-23T00:59:12;12.50;38.40
37678;DHT22;23517;50.390;8.616;2023-03-23T01:01:39;12.40;38.80
37678;DHT22;23517;50.390;8.616;2023-03-23T01:04:05;12.40;38.40
37678;DHT22;23517;50.390;8.616;2023-03-23T01:06:33;12.30;39.30
37678;DHT22;23517;50.390;8.616;2023-03-23T01:09:01;12.30;39.50
37678;DHT22;23517;50.390;8.616;2023-03-23T01:11:28;12.20;39.30
37678;DHT22;23517;50.390;8.616;2023-03-23T01:13:54;12.20;39.50
37678;DHT22;23517;50.390;8.616;2023-03-23T01:16:20;12.20;39.90
37678;DHT22;23517;50.390;8.616;2023-03-23T01:18:46;12.20;39.40
37678;DHT22;23517;50.390;8.616;2023-03-23T01:21:15;12.20;39.60
37678;DHT22;23517;50.390;8.616;2023-03-23T01:23:42;12.20;39.20
37678;DHT22;23517;50.390;8.616;2023-03-23T01:26:23;12.20;40.30
37678;DHT22;23517;50.390;8.616;2023-03-23T01:28:52;12.20;41.40
37678;DHT22;23517;50.390;8.616;2023-03-23T01:31:20;12.20;42.00
37678;DHT22;23517;50.390;8.616;2023-03-23T01:33:47;12.10;42.70
37678;DHT22;23517;50.390;8.616;2023-03-23T01:36:16;12.10;43.70
37678;DHT22;23517;50.390;8.616;2023-03-23T01:38:45;12.10;44.00
37678;DHT22;23517;50.390;8.616;2023-03-23T01:41:13;11.90;44.30
37678;DHT22;23517;50.390;8.616;2023-03-23T01:46:32;11.90;44.30
37678;DHT22;23517;50.390;8.616;2023-03-23T01:49:06;11.80;44.00
37678;DHT22;23517;50.390;8.616;2023-03-23T01:51:46;11.80;44.50
37678;DHT22;23517;50.390;8.616;2023-03-23T01:54:15;11.80;44.50
37678;DHT22;23517;50.390;8.616;2023-03-23T01:56:59;11.80;45.30
37678;DHT22;23517;50.390;8.616;2023-03-23T01:59:28;11.80;44.60
37678;DHT22;23517;50.390;8.616;2023-03-23T02:01:54;11.80;44.00
37678;DHT22;23517;50.390;8.616;2023-03-23T02:04:22;11.90;44.00
37678;DHT22;23517;50.390;8.616;2023-03-23T02:06:50;11.80;44.60
37678;DHT22;23517;50.390;8.616;2023-03-23T02:09:17;11.80;45.30
37678;DHT22;23517;50.390;8.616;2023-03-23T02:11:44;11.80;45.70
37678;DHT22;23517;50.390;8.616;2023-03-23T02:14:11;11.80;45.80
37678;DHT22;23517;50.390;8.616;2023-03-23T02:16:47;11.70;46.00
37678;DHT22;23517;50.390;8.616;2023-03-23T02:25:33;11.50;50.40
37678;DHT22;23517;50.390;8.616;2023-03-23T02:28:31;11.40;51.90
37678;DHT22;23517;50.390;8.616;2023-03-23T02:31:29;11.40;53.10
37678;DHT22;23517;50.390;8.616;2023-03-23T02:34:25;11.30;56.00
37678;DHT22;23517;50.390;8.616;2023-03-23T02:37:03;11.20;55.30
37678;DHT22;23517;50.390;8.616;2023-03-23T02:39:46;11.20;55.70
37678;DHT22;23517;50.390;8.616;2023-03-23T02:42:18;11.20;56.00
37678;DHT22;23517;50.390;8.616;2023-03-23T02:44:47;11.10;55.90
37678;DHT22;23517;50.390;8.616;2023-03-23T02:47:23;11.10;55.90
37678;DHT22;23517;50.390;8.616;2023-03-23T02:49:53;11.00;55.80
37678;DHT22;23517;50.390;8.616;2023-03-23T02:52:24;11.10;55.10
37678;DHT22;23517;50.390;8.616;2023-03-23T02:54:53;11.10;53.50
37678;DHT22;23517;50.390;8.616;2023-03-23T02:57:21;11.20;51.40
37678;DHT22;23517;50.390;8.616;2023-03-23T02:59:47;11.30;49.20
37678;DHT22;23517;50.390;8.616;2023-03-23T03:02:28;11.30;48.80
37678;DHT22;23517;50.390;8.616;2023-03-23T03:05:11;11.40;48.70
37678;DHT22;23517;50.390;8.616;2023-03-23T03:16:22;11.40;50.50
37678;DHT22;23517;50.390;8.616;2023-03-23T03:19:00;11.50;51.60
37678;DHT22;23517;50.390;8.616;2023-03-23T03:21:36;11.40;51.80
37678;DHT22;23517;50.390;8.616;2023-03-23T03:24:05;11.40;53.10
37678;DHT22;23517;50.390;8.616;2023-03-23T03:26:38;11.30;54.00
37678;DHT22;23517;50.390;8.616;2023-03-23T03:29:07;11.30;55.10
37678;DHT22;23517;50.390;8.616;2023-03-23T03:31:36;11.20;55.70
37678;DHT22;23517;50.390;8.616;2023-03-23T03:34:04;11.10;57.10
37678;DHT22;23517;50.390;8.616;2023-03-23T03:36:33;11.10;57.50
37678;DHT22;23517;50.390;8.616;2023-03-23T03:39:07;11.10;58.10
37678;DHT22;23517;50.390;8.616;2023-03-23T03:41:36;11.10;58.60
37678;DHT22;23517;50.390;8.616;2023-03-23T03:44:04;11.00;59.20
37678;DHT22;23517;50.390;8.616;2023-03-23T03:46:31;11.00;60.80
37678;DHT22;23517;50.390;8.616;2023-03-23T03:49:01;10.90;61.40
37678;DHT22;23517;50.390;8.616;2023-03-23T03:51:29;10.80;62.50
37678;DHT22;23517;50.390;8.616;2023-03-23T03:53:55;10.80;63.40
37678;DHT22;23517;50.390;8.616;2023-03-23T03:56:21;10.80;63.70
37678;DHT22;23517;50.390;8.616;2023-03-23T03:58:48;10.70;65.90
37678;DHT22;23517;50.390;8.616;2023-03-23T04:01:16;10.70;67.00
37678;DHT22;23517;50.390;8.616;2023-03-23T04:03:43;10.60;67.90
37678;DHT22;23517;50.390;8.616;2023-03-23T04:06:11;10.60;67.90
37678;DHT22;23517;50.390;8.616;2023-03-23T04:08:38;10.60;69.40
37678;DHT22;23517;50.390;8.616;2023-03-23T04:11:07;10.60;69.70
37678;DHT22;23517;50.390;8.616;2023-03-23T04:13:33;10.50;71.10
37678;DHT22;23517;50.390;8.616;2023-03-23T04:16:03;10.50;71.90
37678;DHT22;23517;50.390;8.616;2023-03-23T04:18:29;10.40;73.00
37678;DHT22;23517;50.390;8.616;2023-03-23T04:20:58;10.40;73.30
37678;DHT22;23517;50.390;8.616;2023-03-23T04:23:25;10.40;74.30
37678;DHT22;23517;50.390;8.616;2023-03-23T04:25:53;10.40;74.50
37678;DHT22;23517;50.390;8.616;2023-03-23T04:28:22;10.40;74.70
37678;DHT22;23517;50.390;8.616;2023-03-23T04:30:50;10.40;75.10
37678;DHT22;23517;50.390;8.616;2023-03-23T04:33:26;10.30;76.40
37678;DHT22;23517;50.390;8.616;2023-03-23T04:35:54;10.30;78.10
37678;DHT22;23517;50.390;8.616;2023-03-23T04:38:23;10.30;79.20
37678;DHT22;23517;50.390;8.616;2023-03-23T04:40:52;10.20;80.80
37678;DHT22;23517;50.390;8.616;2023-03-23T04:43:18;10.20;81.40
37678;DHT22;23517;50.390;8.616;2023-03-23T04:45:47;10.20;82.70
37678;DHT22;23517;50.390;8.616;2023-03-23T04:48:23;10.20;82.40
37678;DHT22;23517;50.390;8.616;2023-03-23T04:50:54;10.20;84.30
37678;DHT22;23517;50.390;8.616;2023-03-23T04:53:20;10.20;84.10
37678;DHT22;23517;50.390;8.616;2023-03-23T04:55:47;10.10;84.30
37678;DHT22;23517;50.390;8.616;2023-03-23T04:58:14;10.10;83.90
37678;DHT22;23517;50.390;8.616;2023-03-23T05:00:41;10.10;84.30
37678;DHT22;23517;50.390;8.616;2023-03-23T05:03:17;10.10;85.00
37678;DHT22;23517;50.390;8.616;2023-03-23T05:05:46;10.10;85.50
37678;DHT22;23517;50.390;8.616;2023-03-23T05:08:20;10.10;86.40
37678;DHT22;23517;50.390;8.616;2023-03-23T05:10:51;10.10;86.20
37678;DHT22;23517;50.390;8.616;2023-03-23T05:13:18;10.10;85.50
37678;DHT22;23517;50.390;8.616;2023-03-23T05:15:44;10.10;86.00
37678;DHT22;23517;50.390;8.616;2023-03-23T05:18:10;10.00;86.70
37678;DHT22;23517;50.390;8.616;2023-03-23T05:20:37;10.00;87.10
37678;DHT22;23517;50.390;8.616;2023-03-23T05:23:02;10.00;87.80
37678;DHT22;23517;50.390;8.616;2023-03-23T05:25:28;10.00;87.30
37678;DHT22;23517;50.390;8.616;2023-03-23T05:27:54;10.00;87.20
37678;DHT22;23517;50.390;8.616;2023-03-23T05:30:20;9.90;87.60
37678;DHT22;23517;50.390;8.616;2023-03-23T05:32:48;9.90;88.50
37678;DHT22;23517;50.390;8.616;2023-03-23T05:35:16;9.90;88.70
37678;DHT22;23517;50.390;8.616;2023-03-23T05:37:43;9.90;88.80
37678;DHT22;23517;50.390;8.616;2023-03-23T05:40:11;9.90;89.10
37678;DHT22;23517;50.390;8.616;2023-03-23T05:42:38;9.90;89.60
37678;DHT22;23517;50.390;8.616;2023-03-23T05:45:07;9.90;90.10
37678;DHT22;23517;50.390;8.616;2023-03-23T05:47:34;9.90;89.50
37678;DHT22;23517;50.390;8.616;2023-03-23T05:50:01;9.90;89.10
37678;DHT22;23517;50.390;8.616;2023-03-23T05:52:29;9.90;86.90
37678;DHT22;23517;50.390;8.616;2023-03-23T05:54:57;10.00;83.70
37678;DHT22;23517;50.390;8.616;2023-03-23T05:57:23;10.10;79.20
37678;DHT22;23517;50.390;8.616;2023-03-23T05:59:49;10.20;75.90
37678;DHT22;23517;50.390;8.616;2023-03-23T06:02:15;10.30;73.40
37678;DHT22;23517;50.390;8.616;2023-03-23T06:04:41;10.40;71.20
37678;DHT22;23517;50.390;8.616;2023-03-23T06:07:07;10.50;70.30
37678;DHT22;23517;50.390;8.616;2023-03-23T06:09:38;10.60;66.70
37678;DHT22;23517;50.390;8.616;2023-03-23T06:12:04;10.70;66.50
37678;DHT22;23517;50.390;8.616;2023-03-23T06:14:30;10.70;65.50
37678;DHT22;23517;50.390;8.616;2023-03-23T06:16:56;10.80;65.60
37678;DHT22;23517;50.390;8.616;2023-03-23T06:19:22;10.80;65.90
37678;DHT22;23517;50.390;8.616;2023-03-23T06:21:48;10.80;64.40
37678;DHT22;23517;50.390;8.616;2023-03-23T06:24:14;10.90;63.10
37678;DHT22;23517;50.390;8.616;2023-03-23T06:26:40;10.90;63.40
37678;DHT22;23517;50.390;8.616;2023-03-23T06:29:09;11.00;63.10
37678;DHT22;23517;50.390;8.616;2023-03-23T06:31:45;11.00;62.70
37678;DHT22;23517;50.390;8.616;2023-03-23T06:34:13;11.10;62.40
37678;DHT22;23517;50.390;8.616;2023-03-23T06:36:40;11.10;62.00
37678;DHT22;23517;50.390;8.616;2023-03-23T06:39:06;11.30;61.60
37678;DHT22;23517;50.390;8.616;2023-03-23T06:41:32;11.30;60.80
37678;DHT22;23517;50.390;8.616;2023-03-23T06:43:59;11.40;60.30
37678;DHT22;23517;50.390;8.616;2023-03-23T06:46:26;11.60;59.70
37678;DHT22;23517;50.390;8.616;2023-03-23T06:48:53;11.60;59.20
37678;DHT22;23517;50.390;8.616;2023-03-23T06:51:19;11.70;59.10
37678;DHT22;23517;50.390;8.616;2023-03-23T06:53:44;11.70;58.40
37678;DHT22;23517;50.390;8.616;2023-03-23T06:56:11;11.70;58.10
37678;DHT22;23517;50.390;8.616;2023-03-23T06:58:38;11.70;58.40
37678;DHT22;23517;50.390;8.616;2023-03-23T07:01:05;11.60;58.60
37678;DHT22;23517;50.390;8.616;2023-03-23T07:03:31;11.60;58.80
37678;DHT22;23517;50.390;8.616;2023-03-23T07:05:57;11.60;58.60
37678;DHT22;23517;50.390;8.616;2023-03-23T07:08:24;11.70;57.90
37678;DHT22;23517;50.390;8.616;2023-03-23T07:10:54;11.70;58.30
37678;DHT22;23517;50.390;8.616;2023-03-23T07:13:21;11.90;57.50
37678;DHT22;23517;50.390;8.616;2023-03-23T07:15:47;11.70;58.10
37678;DHT22;23517;50.390;8.616;2023-03-23T07:18:14;11.70;58.10
37678;DHT22;23517;50.390;8.616;2023-03-23T07:20:40;11.70;58.00
37678;DHT22;23517;50.390;8.616;2023-03-23T07:23:06;11.70;58.10
37678;DHT22;23517;50.390;8.616;2023-03-23T07:25:33;11.70;58.30
37678;DHT22;23517;50.390;8.616;2023-03-23T07:28:00;11.70;57.90
37678;DHT22;23517;50.390;8.616;2023-03-23T07:30:26;11.70;58.00
37678;DHT22;23517;50.390;8.616;2023-03-23T07:32:55;11.80;57.70
37678;DHT22;23517;50.390;8.616;2023-03-23T07:35:21;11.80;57.50
37678;DHT22;23517;50.390;8.616;2023-03-23T07:37:47;11.80;57.40
37678;DHT22;23517;50.390;8.616;2023-03-23T07:40:15;11.80;58.30
37678;DHT22;23517;50.390;8.616;2023-03-23T07:42:45;11.90;57.30
37678;DHT22;23517;50.390;8.616;2023-03-23T07:45:16;11.90;57.10
37678;DHT22;23517;50.390;8.616;2023-03-23T07:47:42;11.90;57.20
37678;DHT22;23517;50.390;8.616;2023-03-23T07:50:08;11.90;56.70
37678;DHT22;23517;50.390;8.616;2023-03-23T07:52:35;11.90;56.70
37678;DHT22;23517;50.390;8.616;2023-03-23T07:55:02;11.90;56.50
37678;DHT22;23517;50.390;8.616;2023-03-23T07:57:31;11.90;55.60
37678;DHT22;23517;50.390;8.616;2023-03-23T07:59:59;12.00;55.50
37678;DHT22;23517;50.390;8.616;2023-03-23T08:02:25;12.00;55.10
37678;DHT22;23517;50.390;8.616;2023-03-23T08:04:52;12.00;55.50
37678;DHT22;23517;50.390;8.616;2023-03-23T08:07:19;12.00;55.50
37678;DHT22;23517;50.390;8.616;2023-03-23T08:09:47;12.10;55.10
37678;DHT22;23517;50.390;8.616;2023-03-23T08:12:14;12.10;54.90
37678;DHT22;23517;50.390;8.616;2023-03-23T08:14:39;12.20;55.10
37678;DHT22;23517;50.390;8.616;2023-03-23T08:17:07;12.20;55.20
37678;DHT22;23517;50.390;8.616;2023-03-23T08:19:35;12.10;55.40
37678;DHT22;23517;50.390;8.616;2023-03-23T08:22:05;12.20;55.10
37678;DHT22;23517;50.390;8.616;2023-03-23T08:24:32;12.20;54.50
37678;DHT22;23517;50.390;8.616;2023-03-23T08:26:59;12.20;54.70
37678;DHT22;23517;50.390;8.616;2023-03-23T08:29:25;12.30;54.10
37678;DHT22;23517;50.390;8.616;2023-03-23T08:31:52;12.40;54.20
37678;DHT22;23517;50.390;8.616;2023-03-23T08:34:19;12.40;54.70
37678;DHT22;23517;50.390;8.616;2023-03-23T08:36:44;12.40;54.70
37678;DHT22;23517;50.390;8.616;2023-03-23T08:39:13;12.50;54.60
37678;DHT22;23517;50.390;8.616;2023-03-23T08:41:43;12.50;54.30
37678;DHT22;23517;50.390;8.616;2023-03-23T08:44:10;12.60;54.30
37678;DHT22;23517;50.390;8.616;2023-03-23T08:46:36;12.50;54.70
37678;DHT22;23517;50.390;8.616;2023-03-23T08:49:02;12.50;54.40
37678;DHT22;23517;50.390;8.616;2023-03-23T08:51:27;12.40;54.70
37678;DHT22;23517;50.390;8.616;2023-03-23T08:53:53;12.40;54.90
37678;DHT22;23517;50.390;8.616;2023-03-23T08:56:19;12.50;54.80
37678;DHT22;23517;50.390;8.616;2023-03-23T08:58:45;12.40;55.30
37678;DHT22;23517;50.390;8.616;2023-03-23T09:01:11;12.40;55.20
37678;DHT22;23517;50.390;8.616;2023-03-23T09:03:37;12.40;55.50
37678;DHT22;23517;50.390;8.616;2023-03-23T09:06:06;12.40;55.60
37678;DHT22;23517;50.390;8.616;2023-03-23T09:08:34;12.40;55.30
37678;DHT22;23517;50.390;8.616;2023-03-23T09:11:06;12.60;53.70
37678;DHT22;23517;50.390;8.616;2023-03-23T09:13:35;12.70;54.00
37678;DHT22;23517;50.390;8.616;2023-03-23T09:16:02;12.70;54.30
37678;DHT22;23517;50.390;8.616;2023-03-23T09:18:29;12.80;53.90
37678;DHT22;23517;50.390;8.616;2023-03-23T09:20:56;12.80;53.80
37678;DHT22;23517;50.390;8.616;2023-03-23T09:23:22;13.00;52.40
37678;DHT22;23517;50.390;8.616;2023-03-23T09:25:48;13.00;52.00
37678;DHT22;23517;50.390;8.616;2023-03-23T09:28:14;13.10;52.10
37678;DHT22;23517;50.390;8.616;2023-03-23T09:30:40;13.20;51.60
37678;DHT22;23517;50.390;8.616;2023-03-23T09:33:07;13.40;50.30
37678;DHT22;23517;50.390;8.616;2023-03-23T09:35:34;13.50;50.40
37678;DHT22;23517;50.390;8.616;2023-03-23T09:38:02;13.70;49.30
37678;DHT22;23517;50.390;8.616;2023-03-23T09:40:46;13.70;48.30
37678;DHT22;23517;50.390;8.616;2023-03-23T09:49:34;13.90;47.60
37678;DHT22;23517;50.390;8.616;2023-03-23T09:52:17;13.80;48.40
37678;DHT22;23517;50.390;8.616;2023-03-23T09:54:50;13.70;50.30
37678;DHT22;23517;50.390;8.616;2023-03-23T09:57:34;13.60;50.00
37678;DHT22;23517;50.390;8.616;2023-03-23T10:03:16;13.40;51.70
37678;DHT22;23517;50.390;8.616;2023-03-23T10:05:50;13.40;52.00
37678;DHT22;23517;50.390;8.616;2023-03-23T10:08:20;13.50;53.00
37678;DHT22;23517;50.390;8.616;2023-03-23T10:11:12;13.50;52.70
37678;DHT22;23517;50.390;8.616;2023-03-23T10:14:05;13.60;52.30
37678;DHT22;23517;50.390;8.616;2023-03-23T10:16:40;13.70;51.90
37678;DHT22;23517;50.390;8.616;2023-03-23T10:19:18;13.60;51.60
37678;DHT22;23517;50.390;8.616;2023-03-23T10:21:51;13.50;52.60
37678;DHT22;23517;50.390;8.616;2023-03-23T10:24:21;13.50;53.40
37678;DHT22;23517;50.390;8.616;2023-03-23T10:27:17;13.50;54.80
37678;DHT22;23517;50.390;8.616;2023-03-23T10:30:01;13.70;54.10
37678;DHT22;23517;50.390;8.616;2023-03-23T10:32:53;13.80;54.00
37678;DHT22;23517;50.390;8.616;2023-03-23T10:35:47;14.10;51.80
37678;DHT22;23517;50.390;8.616;2023-03-23T10:38:24;14.30;50.30
37678;DHT22;23517;50.390;8.616;2023-03-23T10:41:11;14.50;49.90
37678;DHT22;23517;50.390;8.616;2023-03-23T10:43:42;14.60;48.00
37678;DHT22;23517;50.390;8.616;2023-03-23T10:49:37;14.50;47.60
37678;DHT22;23517;50.390;8.616;2023-03-23T10:52:18;14.40;47.80
37678;DHT22;23517;50.390;8.616;2023-03-23T10:54:54;14.40;46.90
37678;DHT22;23517;50.390;8.616;2023-03-23T10:57:27;14.30;48.20
37678;DHT22;23517;50.390;8.616;2023-03-23T11:02:45;14.30;43.80
37678;DHT22;23517;50.390;8.616;2023-03-23T11:05:20;14.60;43.50
37678;DHT22;23517;50.390;8.616;2023-03-23T11:07:55;14.80;41.60
37678;DHT22;23517;50.390;8.616;2023-03-23T11:10:23;15.00;41.20
37678;DHT22;23517;50.390;8.616;2023-03-23T11:13:14;15.10;40.50
37678;DHT22;23517;50.390;8.616;2023-03-23T11:15:43;15.20;40.00
37678;DHT22;23517;50.390;8.616;2023-03-23T11:21:00;15.10;40.50
37678;DHT22;23517;50.390;8.616;2023-03-23T11:23:30;15.20;39.80
37678;DHT22;23517;50.390;8.616;2023-03-23T11:26:29;15.20;40.80
37678;DHT22;23517;50.390;8.616;2023-03-23T11:29:16;15.10;41.10
37678;DHT22;23517;50.390;8.616;2023-03-23T11:31:48;15.20;40.40
37678;DHT22;23517;50.390;8.616;2023-03-23T11:34:30;15.20;40.90
37678;DHT22;23517;50.390;8.616;2023-03-23T11:37:11;15.10;40.60
37678;DHT22;23517;50.390;8.616;2023-03-23T11:48:43;14.50;42.00
37678;DHT22;23517;50.390;8.616;2023-03-23T11:51:23;14.30;42.50
37678;DHT22;23517;50.390;8.616;2023-03-23T11:56:49;14.10;43.70
37678;DHT22;23517;50.390;8.616;2023-03-23T11:59:29;14.00;44.40
37678;DHT22;23517;50.390;8.616;2023-03-23T12:02:24;13.90;43.90
37678;DHT22;23517;50.390;8.616;2023-03-23T12:05:29;13.90;43.60
37678;DHT22;23517;50.390;8.616;2023-03-23T12:08:08;13.80;44.00
37678;DHT22;23517;50.390;8.616;2023-03-23T12:16:35;13.70;45.20
37678;DHT22;23517;50.390;8.616;2023-03-23T12:19:27;13.60;45.90
37678;DHT22;23517;50.390;8.616;2023-03-23T12:31:21;13.80;44.40
37678;DHT22;23517;50.390;8.616;2023-03-23T12:36:36;13.80;44.30
37678;DHT22;23517;50.390;8.616;2023-03-23T12:39:54;13.80;44.40
37678;DHT22;23517;50.390;8.616;2023-03-23T12:43:01;14.00;44.10
37678;DHT22;23517;50.390;8.616;2023-03-23T12:49:14;14.40;42.20
37678;DHT22;23517;50.390;8.616;2023-03-23T12:57:39;14.60;41.70
37678;DHT22;23517;50.390;8.616;2023-03-23T13:00:22;14.70;41.60
37678;DHT22;23517;50.390;8.616;2023-03-23T13:03:10;14.90;41.20
37678;DHT22;23517;50.390;8.616;2023-03-23T13:05:50;15.20;40.60
37678;DHT22;23517;50.390;8.616;2023-03-23T13:09:27;15.40;40.00
37678;DHT22;23517;50.390;8.616;2023-03-23T13:11:40;15.40;40.00
37678;DHT22;23517;50.390;8.616;2023-03-23T13:23:18;15.60;40.10
37678;DHT22;23517;50.390;8.616;2023-03-23T13:28:25;15.40;40.30
37678;DHT22;23517;50.390;8.616;2023-03-23T13:31:04;15.40;40.20
37678;DHT22;23517;50.390;8.616;2023-03-23T13:33:38;15.40;39.50
37678;DHT22;23517;50.390;8.616;2023-03-23T13:36:13;15.30;39.90
37678;DHT22;23517;50.390;8.616;2023-03-23T13:38:46;15.20;40.40
37678;DHT22;23517;50.390;8.616;2023-03-23T13:41:15;15.10;40.70
37678;DHT22;23517;50.390;8.616;2023-03-23T13:43:43;15.10;40.20
37678;DHT22;23517;50.390;8.616;2023-03-23T13:46:23;15.10;40.80
37678;DHT22;23517;50.390;8.616;2023-03-23T13:49:17;15.20;40.50
37678;DHT22;23517;50.390;8.616;2023-03-23T13:51:56;15.20;40.10
37678;DHT22;23517;50.390;8.616;2023-03-23T13:54:38;15.30;40.20
37678;DHT22;23517;50.390;8.616;2023-03-23T13:57:48;15.40;39.70
37678;DHT22;23517;50.390;8.616;2023-03-23T14:03:12;15.50;39.30
37678;DHT22;23517;50.390;8.616;2023-03-23T14:10:59;15.30;40.50
37678;DHT22;23517;50.390;8.616;2023-03-23T14:13:35;15.30;39.60
37678;DHT22;23517;50.390;8.616;2023-03-23T14:16:20;15.30;40.00
37678;DHT22;23517;50.390;8.616;2023-03-23T14:18:59;15.30;39.60
37678;DHT22;23517;50.390;8.616;2023-03-23T14:21:33;15.30;39.80
37678;DHT22;23517;50.390;8.616;2023-03-23T14:24:16;15.30;40.00
37678;DHT22;23517;50.390;8.616;2023-03-23T14:26:45;15.20;39.80
37678;DHT22;23517;50.390;8.616;2023-03-23T14:29:12;15.20;39.80
37678;DHT22;23517;50.390;8.616;2023-03-23T14:31:39;15.10;39.80
37678;DHT22;23517;50.390;8.616;2023-03-23T14:34:19;14.90;40.40
37678;DHT22;23517;50.390;8.616;2023-03-23T14:36:46;14.90;40.80
37678;DHT22;23517;50.390;8.616;2023-03-23T14:41:51;14.80;40.80
37678;DHT22;23517;50.390;8.616;2023-03-23T14:44:30;14.90;40.70
37678;DHT22;23517;50.390;8.616;2023-03-23T14:47:00;15.00;39.70
37678;DHT22;23517;50.390;8.616;2023-03-23T14:49:32;15.10;40.10
37678;DHT22;23517;50.390;8.616;2023-03-23T14:52:08;15.00;40.40
37678;DHT22;23517;50.390;8.616;2023-03-23T14:54:36;14.80;40.50
37678;DHT22;23517;50.390;8.616;2023-03-23T14:57:18;14.90;41.00
37678;DHT22;23517;50.390;8.616;2023-03-23T14:59:53;14.90;40.50
37678;DHT22;23517;50.390;8.616;2023-03-23T15:02:31;15.00;40.70
37678;DHT22;23517;50.390;8.616;2023-03-23T15:05:13;15.00;40.60
37678;DHT22;23517;50.390;8.616;2023-03-23T15:07:49;15.00;40.90
37678;DHT22;23517;50.390;8.616;2023-03-23T15:10:21;15.00;40.80
37678;DHT22;23517;50.390;8.616;2023-03-23T15:12:49;15.00;40.80
37678;DHT22;23517;50.390;8.616;2023-03-23T15:15:25;15.10;40.70
37678;DHT22;23517;50.390;8.616;2023-03-23T15:17:59;15.20;40.40
37678;DHT22;23517;50.390;8.616;2023-03-23T15:20:32;15.20;40.80
37678;DHT22;23517;50.390;8.616;2023-03-23T15:23:17;15.20;40.60
37678;DHT22;23517;50.390;8.616;2023-03-23T15:25:50;15.20;40.70
37678;DHT22;23517;50.390;8.616;2023-03-23T15:30:57;15.10;41.20
37678;DHT22;23517;50.390;8.616;2023-03-23T15:33:25;15.10;41.00
37678;DHT22;23517;50.390;8.616;2023-03-23T15:35:54;14.90;41.10
37678;DHT22;23517;50.390;8.616;2023-03-23T15:38:28;14.80;42.10
37678;DHT22;23517;50.390;8.616;2023-03-23T15:41:03;14.70;42.40
37678;DHT22;23517;50.390;8.616;2023-03-23T15:43:53;14.60;42.60
37678;DHT22;23517;50.390;8.616;2023-03-23T15:46:25;14.50;43.20
37678;DHT22;23517;50.390;8.616;2023-03-23T15:51:26;14.50;42.90
37678;DHT22;23517;50.390;8.616;2023-03-23T15:53:54;14.50;43.30
37678;DHT22;23517;50.390;8.616;2023-03-23T15:56:21;14.50;42.50
37678;DHT22;23517;50.390;8.616;2023-03-23T15:58:47;14.40;43.10
37678;DHT22;23517;50.390;8.616;2023-03-23T16:01:17;14.40;43.40
37678;DHT22;23517;50.390;8.616;2023-03-23T16:06:40;14.30;43.10
37678;DHT22;23517;50.390;8.616;2023-03-23T16:09:15;14.20;42.50
37678;DHT22;23517;50.390;8.616;2023-03-23T16:11:42;14.20;42.50
37678;DHT22;23517;50.390;8.616;2023-03-23T16:14:10;14.30;42.70
37678;DHT22;23517;50.390;8.616;2023-03-23T16:16:40;14.20;43.10
37678;DHT22;23517;50.390;8.616;2023-03-23T16:19:11;14.20;42.10
37678;DHT22;23517;50.390;8.616;2023-03-23T16:21:39;14.20;42.30
37678;DHT22;23517;50.390;8.616;2023-03-23T16:24:07;14.20;42.70
37678;DHT22;23517;50.390;8.616;2023-03-23T16:26:35;14.20;42.70
37678;DHT22;23517;50.390;8.616;2023-03-23T16:29:10;14.20;42.90
37678;DHT22;23517;50.390;8.616;2023-03-23T16:31:59;14.20;42.70
37678;DHT22;23517;50.390;8.616;2023-03-23T16:34:26;14.10;42.90
37678;DHT22;23517;50.390;8.616;2023-03-23T16:36:55;14.10;43.20
37678;DHT22;23517;50.390;8.616;2023-03-23T16:39:22;14.10;43.30
37678;DHT22;23517;50.390;8.616;2023-03-23T16:41:48;14.00;43.80
37678;DHT22;23517;50.390;8.616;2023-03-23T16:44:15;13.90;44.10
37678;DHT22;23517;50.390;8.616;2023-03-23T16:46:42;13.90;44.00
37678;DHT22;23517;50.390;8.616;2023-03-23T16:49:09;13.80;44.10
37678;DHT22;23517;50.390;8.616;2023-03-23T16:51:36;13.80;44.50
37678;DHT22;23517;50.390;8.616;2023-03-23T16:54:02;13.70;44.60
37678;DHT22;23517;50.390;8.616;2023-03-23T16:56:29;13.70;44.80
37678;DHT22;23517;50.390;8.616;2023-03-23T16:58:56;13.70;45.20
37678;DHT22;23517;50.390;8.616;2023-03-23T17:01:22;13.60;45.20
37678;DHT22;23517;50.390;8.616;2023-03-23T17:03:49;13.50;45.70
37678;DHT22;23517;50.390;8.616;2023-03-23T17:06:16;13.50;45.60
37678;DHT22;23517;50.390;8.616;2023-03-23T17:08:43;13.50;45.70
37678;DHT22;23517;50.390;8.616;2023-03-23T17:11:10;13.50;45.30
37678;DHT22;23517;50.390;8.616;2023-03-23T17:13:37;13.40;45.70
37678;DHT22;23517;50.390;8.616;2023-03-23T17:16:06;13.40;45.70
37678;DHT22;23517;50.390;8.616;2023-03-23T17:18:33;13.40;45.30
37678;DHT22;23517;50.390;8.616;2023-03-23T17:20:59;13.30;45.80
37678;DHT22;23517;50.390;8.616;2023-03-23T17:23:26;13.30;46.30
37678;DHT22;23517;50.390;8.616;2023-03-23T17:25:53;13.20;46.80
37678;DHT22;23517;50.390;8.616;2023-03-23T17:28:19;13.20;46.70
37678;DHT22;23517;50.390;8.616;2023-03-23T17:30:47;13.20;46.40
37678;DHT22;23517;50.390;8.616;2023-03-23T17:33:14;13.20;46.50
37678;DHT22;23517;50.390;8.616;2023-03-23T17:35:41;13.20;46.40
37678;DHT22;23517;50.390;8.616;2023-03-23T17:38:08;13.20;46.50
37678;DHT22;23517;50.390;8.616;2023-03-23T17:40:35;13.20;46.60
37678;DHT22;23517;50.390;8.616;2023-03-23T17:43:02;13.20;46.60
37678;DHT22;23517;50.390;8.616;2023-03-23T17:45:29;13.20;46.90